sensor_id;sensor_type;location;lat;lon;timestamp;temperature;humidity
3202;DHT22;34843;48.744;8.958;2023-04-25T09:34:16;6.80;99.90
3202;DHT22;34843;48.744;8.958;2023-04-25T09:36:42;6.90;99.90
3202;DHT22;34843;48.744;8.958;2023-04-25T09:39:12;6.90;99.90
3202;DHT22;34843;48.744;8.958;2023-04-25T09:41:41;7.00;99.90
3202;DHT22;34843;48.744;8.958;2023-04-25T09:44:06;7.10;99.90
3202;DHT22;34843;48.744;8.958;2023-04-25T09:46:35;7.10;99.90
3202;DHT22;34843;48.744;8.958;2023-04-25T09:49:07;7.20;99.90
3202;DHT22;34843;48.744;8.958;2023-04-25T09:51:32;7.30;99.90
3202;DHT22;34843;48.744;8.958;2023-04-25T09:53:58;7.20;99.90
3202;DHT22;34843;48.744;8.958;2023-04-25T09:56:24;7.20;99.90
3202;DHT22;34843;48.744;8.958;2023-04-25T09:58:53;7.50;99.90
3202;DHT22;34843;48.744;8.958;2023-04-25T10:01:21;7.60;99.90
3202;DHT22;34843;48.744;8.958;2023-04-25T10:03:47;7.80;99.90
3202;DHT22;34843;48.744;8.958;2023-04-25T10:06:19;7.90;99.90
3202;DHT22;34843;48.744;8.958;2023-04-25T10:08:50;8.00;99.90
3202;DHT22;34843;48.744;8.958;2023-04-25T10:11:17;8.20;99.90
3202;DHT22;34843;48.744;8.958;2023-04-25T10:13:43;8.30;99.90
3202;DHT22;34843;48.744;8.958;2023-04-25T10:16:09;8.40;99.90
3202;DHT22;34843;48.744;8.958;2023-04-25T10:18:35;8.50;99.90
3202;DHT22;34843;48.744;8.958;2023-04-25T10:21:04;8.50;99.90
3202;DHT22;34843;48.744;8.958;2023-04-25T10:23:30;8.50;99.90
3202;DHT22;34843;48.744;8.958;2023-04-25T10:25:57;8.50;99.90
3202;DHT22;34843;48.744;8.958;2023-04-25T10:28:23;8.50;99.90
3202;DHT22;34843;48.744;8.958;2023-04-25T10:31:07;8.40;99.90
3202;DHT22;34843;48.744;8.958;2023-04-25T10:33:38;8.10;99.90
3202;DHT22;34843;48.744;8.958;2023-04-25T10:36:11;8.10;99.90
3202;DHT22;34843;48.744;8.958;2023-04-25T10:38:37;8.20;99.90
3202;DHT22;34843;48.744;8.958;2023-04-25T10:41:08;8.30;99.90
3202;DHT22;34843;48.744;8.958;2023-04-25T10:43:36;8.20;99.90
3202;DHT22;34843;48.744;8.958;2023-04-25T10:46:12;8.10;99.90
3202;DHT22;34843;48.744;8.958;2023-04-25T10:48:47;8.20;99.90
3202;DHT22;34843;48.744;8.958;2023-04-25T10:56:22;8.10;99.90
3202;DHT22;34843;48.744;8.958;2023-04-25T10:58:48;8.00;99.90
3202;DHT22;34843;48.744;8.958;2023-04-25T11:01:15;7.80;99.90
3202;DHT22;34843;48.744;8.958;2023-04-25T11:03:44;7.50;99.90
3202;DHT22;34843;48.744;8.958;2023-04-25T11:06:28;7.50;99.90
3202;DHT22;34843;48.744;8.958;2023-04-25T11:08:55;7.40;99.90
3202;DHT22;34843;48.744;8.958;2023-04-25T11:11:20;7.40;99.90
3202;DHT22;34843;48.744;8.958;2023-04-25T11:13:49;7.40;99.90
3202;DHT22;34843;48.744;8.958;2023-04-25T11:16:16;7.40;99.90
3202;DHT22;34843;48.744;8.958;2023-04-25T11:18:42;7.50;99.90
3202;DHT22;34843;48.744;8.958;2023-04-25T11:21:08;7.60;99.90
3202;DHT22;34843;48.744;8.958;2023-04-25T11:23:34;7.60;99.90
3202;DHT22;34843;48.744;8.958;2023-04-25T11:25:59;7.70;99.90
3202;DHT22;34843;48.744;8.958;2023-04-25T11:28:26;7.70;99.90
3202;DHT22;34843;48.744;8.958;2023-04-25T11:30:52;7.70;99.90
3202;DHT22;34843;48.744;8.958;2023-04-25T11:33:22;7.80;99.90
3202;DHT22;34843;48.744;8.958;2023-04-25T11:35:48;7.80;99.90
3202;DHT22;34843;48.744;8.958;2023-04-25T11:38:13;8.00;99.90
3202;DHT22;34843;48.744;8.958;2023-04-25T11:40:39;8.20;99.90
3202;DHT22;34843;48.744;8.958;2023-04-25T11:43:05;8.20;99.90
3202;DHT22;34843;48.744;8.958;2023-04-25T11:45:31;9.40;99.90
3202;DHT22;34843;48.744;8.958;2023-04-25T11:47:57;8.10;99.90
3202;DHT22;34843;48.744;8.958;2023-04-25T11:50:22;8.20;99.90
3202;DHT22;34843;48.744;8.958;2023-04-25T11:52:48;8.20;99.90
3202;DHT22;34843;48.744;8.958;2023-04-25T11:55:15;8.20;99.90
3202;DHT22;34843;48.744;8.958;2023-04-25T11:57:42;8.10;99.90
3202;DHT22;34843;48.744;8.958;2023-04-25T12:00:15;7.80;99.90
3202;DHT22;34843;48.744;8.958;2023-04-25T12:02:43;7.70;99.90
3202;DHT22;34843;48.744;8.958;2023-04-25T12:05:10;7.80;99.90
3202;DHT22;34843;48.744;8.958;2023-04-25T12:07:36;7.90;99.90
3202;DHT22;34843;48.744;8.958;2023-04-25T12:10:11;7.80;99.90
3202;DHT22;34843;48.744;8.958;2023-04-25T12:12:38;7.80;99.90
3202;DHT22;34843;48.744;8.958;2023-04-25T12:15:14;7.60;99.90
3202;DHT22;34843;48.744;8.958;2023-04-25T12:17:48;7.70;99.90
3202;DHT22;34843;48.744;8.958;2023-04-25T12:20:19;7.90;99.90
3202;DHT22;34843;48.744;8.958;2023-04-25T12:22:51;8.10;99.90
3202;DHT22;34843;48.744;8.958;2023-04-25T12:25:43;8.30;99.90
3202;DHT22;34843;48.744;8.958;2023-04-25T12:28:11;8.30;99.90
3202;DHT22;34843;48.744;8.958;2023-04-25T12:30:56;8.50;99.90
3202;DHT22;34843;48.744;8.958;2023-04-25T12:33:22;8.60;99.90
3202;DHT22;34843;48.744;8.958;2023-04-25T12:35:48;8.80;99.90
3202;DHT22;34843;48.744;8.958;2023-04-25T12:38:26;9.10;99.90
3202;DHT22;34843;48.744;8.958;2023-04-25T12:40:52;9.10;99.90
3202;DHT22;34843;48.744;8.958;2023-04-25T12:43:18;9.30;99.90
3202;DHT22;34843;48.744;8.958;2023-04-25T12:45:47;9.40;99.90
3202;DHT22;34843;48.744;8.958;2023-04-25T12:48:12;9.60;99.90
3202;DHT22;34843;48.744;8.958;2023-04-25T12:50:38;10.10;99.90
3202;DHT22;34843;48.744;8.958;2023-04-25T12:53:03;10.30;99.90
3202;DHT22;34843;48.744;8.958;2023-04-25T12:55:29;10.30;99.90
3202;DHT22;34843;48.744;8.958;2023-04-25T12:57:55;10.20;99.90
3202;DHT22;34843;48.744;8.958;2023-04-25T13:00:20;10.30;99.90
3202;DHT22;34843;48.744;8.958;2023-04-25T13:02:46;10.30;99.90
3202;DHT22;34843;48.744;8.958;2023-04-25T13:05:12;10.20;99.90
3202;DHT22;34843;48.744;8.958;2023-04-25T13:07:38;10.50;99.90
3202;DHT22;34843;48.744;8.958;2023-04-25T13:10:04;10.80;99.90
3202;DHT22;34843;48.744;8.958;2023-04-25T13:12:31;11.10;99.90
3202;DHT22;34843;48.744;8.958;2023-04-25T13:14:56;11.10;99.90
3202;DHT22;34843;48.744;8.958;2023-04-25T13:17:22;11.10;99.90
3202;DHT22;34843;48.744;8.958;2023-04-25T13:19:48;11.30;99.90
3202;DHT22;34843;48.744;8.958;2023-04-25T13:22:13;11.50;99.90
3202;DHT22;34843;48.744;8.958;2023-04-25T13:24:40;11.50;99.90
3202;DHT22;34843;48.744;8.958;2023-04-25T13:27:06;11.70;99.90
3202;DHT22;34843;48.744;8.958;2023-04-25T13:29:31;11.50;99.90
3202;DHT22;34843;48.744;8.958;2023-04-25T13:32:00;11.20;99.90
3202;DHT22;34843;48.744;8.958;2023-04-25T13:34:26;10.90;99.90
3202;DHT22;34843;48.744;8.958;2023-04-25T13:36:51;10.60;99.90
3202;DHT22;34843;48.744;8.958;2023-04-25T13:39:17;10.60;99.90
3202;DHT22;34843;48.744;8.958;2023-04-25T13:41:42;10.60;99.90
3202;DHT22;34843;48.744;8.958;2023-04-25T13:44:08;10.70;99.90
3202;DHT22;34843;48.744;8.958;2023-04-25T13:46:34;10.80;99.90
3202;DHT22;34843;48.744;8.958;2023-04-25T13:48:59;10.90;99.90
3202;DHT22;34843;48.744;8.958;2023-04-25T13:51:26;11.10;99.90
3202;DHT22;34843;48.744;8.958;2023-04-25T13:53:52;10.90;99.90
3202;DHT22;34843;48.744;8.958;2023-04-25T13:56:18;10.70;99.90
3202;DHT22;34843;48.744;8.958;2023-04-25T13:58:44;10.70;99.90
3202;DHT22;34843;48.744;8.958;2023-04-25T14:01:10;10.80;99.90
3202;DHT22;34843;48.744;8.958;2023-04-25T14:03:36;10.90;99.90
3202;DHT22;34843;48.744;8.958;2023-04-25T14:06:01;10.90;99.90
3202;DHT22;34843;48.744;8.958;2023-04-25T14:08:27;10.60;99.90
3202;DHT22;34843;48.744;8.958;2023-04-25T14:10:54;10.50;99.90
3202;DHT22;34843;48.744;8.958;2023-04-25T14:13:19;10.50;99.90
3202;DHT22;34843;48.744;8.958;2023-04-25T14:15:45;10.40;99.90
3202;DHT22;34843;48.744;8.958;2023-04-25T14:18:11;10.70;99.90
3202;DHT22;34843;48.744;8.958;2023-04-25T14:20:36;10.90;99.90
3202;DHT22;34843;48.744;8.958;2023-04-25T14:23:02;11.10;99.90
3202;DHT22;34843;48.744;8.958;2023-04-25T14:25:29;11.20;99.90
3202;DHT22;34843;48.744;8.958;2023-04-25T14:27:55;11.40;99.90
3202;DHT22;34843;48.744;8.958;2023-04-25T14:30:21;11.10;99.90
3202;DHT22;34843;48.744;8.958;2023-04-25T14:32:48;11.20;99.90
3202;DHT22;34843;48.744;8.958;2023-04-25T14:35:13;11.20;99.90
3202;DHT22;34843;48.744;8.958;2023-04-25T14:37:39;11.30;99.90
3202;DHT22;34843;48.744;8.958;2023-04-25T14:40:05;11.30;99.90
3202;DHT22;34843;48.744;8.958;2023-04-25T14:42:32;11.10;99.90
3202;DHT22;34843;48.744;8.958;2023-04-25T14:44:59;11.20;99.90
3202;DHT22;34843;48.744;8.958;2023-04-25T14:47:24;11.30;99.90
3202;DHT22;34843;48.744;8.958;2023-04-25T14:49:50;11.60;99.90
3202;DHT22;34843;48.744;8.958;2023-04-25T14:52:20;11.50;99.90
3202;DHT22;34843;48.744;8.958;2023-04-25T14:54:46;11.50;99.90
3202;DHT22;34843;48.744;8.958;2023-04-25T14:57:11;11.60;99.90
3202;DHT22;34843;48.744;8.958;2023-04-25T14:59:37;11.50;99.90
3202;DHT22;34843;48.744;8.958;2023-04-25T15:02:03;11.40;99.90
3202;DHT22;34843;48.744;8.958;2023-04-25T15:04:28;11.40;99.90
3202;DHT22;34843;48.744;8.958;2023-04-25T15:06:54;11.40;99.90
3202;DHT22;34843;48.744;8.958;2023-04-25T15:09:19;11.30;99.90
3202;DHT22;34843;48.744;8.958;2023-04-25T15:11:45;11.10;99.90
3202;DHT22;34843;48.744;8.958;2023-04-25T15:14:10;10.70;99.90
3202;DHT22;34843;48.744;8.958;2023-04-25T15:16:36;10.30;99.90
3202;DHT22;34843;48.744;8.958;2023-04-25T15:19:02;10.20;99.90
3202;DHT22;34843;48.744;8.958;2023-04-25T15:21:31;10.20;99.90
3202;DHT22;34843;48.744;8.958;2023-04-25T15:23:57;10.20;99.90
3202;DHT22;34843;48.744;8.958;2023-04-25T15:26:22;10.30;99.90
3202;DHT22;34843;48.744;8.958;2023-04-25T15:28:48;10.40;99.90
3202;DHT22;34843;48.744;8.958;2023-04-25T15:31:14;10.30;99.90
3202;DHT22;34843;48.744;8.958;2023-04-25T15:33:39;10.40;99.90
3202;DHT22;34843;48.744;8.958;2023-04-25T15:36:05;10.60;99.90
3202;DHT22;34843;48.744;8.958;2023-04-25T15:38:31;10.70;99.90
3202;DHT22;34843;48.744;8.958;2023-04-25T15:40:57;10.70;99.90
3202;DHT22;34843;48.744;8.958;2023-04-25T15:43:22;10.80;99.90
3202;DHT22;34843;48.744;8.958;2023-04-25T15:45:48;10.90;99.90
3202;DHT22;34843;48.744;8.958;2023-04-25T15:48:13;11.10;99.90
3202;DHT22;34843;48.744;8.958;2023-04-25T15:50:40;11.10;99.90
3202;DHT22;34843;48.744;8.958;2023-04-25T15:53:06;11.10;99.90
3202;DHT22;34843;48.744;8.958;2023-04-25T15:55:31;10.90;99.90
3202;DHT22;34843;48.744;8.958;2023-04-25T15:57:58;10.60;99.90
3202;DHT22;34843;48.744;8.958;2023-04-25T16:00:23;10.50;99.90
3202;DHT22;34843;48.744;8.958;2023-04-25T16:02:49;10.50;99.90
3202;DHT22;34843;48.744;8.958;2023-04-25T16:05:15;10.50;99.90
3202;DHT22;34843;48.744;8.958;2023-04-25T16:07:42;10.60;99.90
3202;DHT22;34843;48.744;8.958;2023-04-25T16:10:09;10.50;99.90
3202;DHT22;34843;48.744;8.958;2023-04-25T16:12:35;10.50;99.90
3202;DHT22;34843;48.744;8.958;2023-04-25T16:15:02;10.70;99.90
3202;DHT22;34843;48.744;8.958;2023-04-25T16:17:27;10.70;99.90
3202;DHT22;34843;48.744;8.958;2023-04-25T16:19:54;10.70;99.90
3202;DHT22;34843;48.744;8.958;2023-04-25T16:22:20;10.80;99.90
3202;DHT22;34843;48.744;8.958;2023-04-25T16:24:46;10.80;99.90
3202;DHT22;34843;48.744;8.958;2023-04-25T16:27:11;10.80;99.90
3202;DHT22;34843;48.744;8.958;2023-04-25T16:29:37;10.70;99.90
3202;DHT22;34843;48.744;8.958;2023-04-25T16:32:03;10.50;99.90
3202;DHT22;34843;48.744;8.958;2023-04-25T16:34:29;10.30;99.90
3202;DHT22;34843;48.744;8.958;2023-04-25T16:36:55;10.20;99.90
3202;DHT22;34843;48.744;8.958;2023-04-25T16:39:21;10.00;99.90
3202;DHT22;34843;48.744;8.958;2023-04-25T16:41:47;9.90;99.90
3202;DHT22;34843;48.744;8.958;2023-04-25T16:44:13;9.80;99.90
3202;DHT22;34843;48.744;8.958;2023-04-25T16:46:38;9.80;99.90
3202;DHT22;34843;48.744;8.958;2023-04-25T16:49:04;9.80;99.90
3202;DHT22;34843;48.744;8.958;2023-04-25T16:51:31;9.80;99.90
3202;DHT22;34843;48.744;8.958;2023-04-25T16:53:58;9.60;99.90
3202;DHT22;34843;48.744;8.958;2023-04-25T16:56:23;9.60;99.90
3202;DHT22;34843;48.744;8.958;2023-04-25T16:58:49;9.70;99.90
3202;DHT22;34843;48.744;8.958;2023-04-25T17:01:16;9.70;99.90
3202;DHT22;34843;48.744;8.958;2023-04-25T17:03:44;9.60;99.90
3202;DHT22;34843;48.744;8.958;2023-04-25T17:06:10;9.50;99.90
3202;DHT22;34843;48.744;8.958;2023-04-25T17:08:36;9.30;99.90
3202;DHT22;34843;48.744;8.958;2023-04-25T17:11:01;9.20;99.90
3202;DHT22;34843;48.744;8.958;2023-04-25T17:13:28;9.20;99.90
3202;DHT22;34843;48.744;8.958;2023-04-25T17:15:53;9.10;99.90
3202;DHT22;34843;48.744;8.958;2023-04-25T17:18:19;9.00;99.90
3202;DHT22;34843;48.744;8.958;2023-04-25T17:20:44;8.90;99.90
3202;DHT22;34843;48.744;8.958;2023-04-25T17:23:10;8.80;99.90
3202;DHT22;34843;48.744;8.958;2023-04-25T17:25:37;8.80;99.90
3202;DHT22;34843;48.744;8.958;2023-04-25T17:28:02;8.70;99.90
3202;DHT22;34843;48.744;8.958;2023-04-25T17:30:28;8.60;99.90
3202;DHT22;34843;48.744;8.958;2023-04-25T17:32:54;8.50;99.90
3202;DHT22;34843;48.744;8.958;2023-04-25T17:35:19;8.40;99.90
3202;DHT22;34843;48.744;8.958;2023-04-25T17:37:45;8.40;99.90
3202;DHT22;34843;48.744;8.958;2023-04-25T17:40:11;8.30;99.90
3202;DHT22;34843;48.744;8.958;2023-04-25T17:42:38;8.10;99.90
3202;DHT22;34843;48.744;8.958;2023-04-25T17:45:04;7.90;99.90
3202;DHT22;34843;48.744;8.958;2023-04-25T17:47:30;7.80;99.90
3202;DHT22;34843;48.744;8.958;2023-04-25T17:49:56;7.60;99.90
3202;DHT22;34843;48.744;8.958;2023-04-25T17:52:23;7.50;99.90
3202;DHT22;34843;48.744;8.958;2023-04-25T17:54:48;7.40;99.90
3202;DHT22;34843;48.744;8.958;2023-04-25T17:57:14;7.30;99.90
3202;DHT22;34843;48.744;8.958;2023-04-25T17:59:40;7.20;99.90
3202;DHT22;34843;48.744;8.958;2023-04-25T18:02:05;7.20;99.90
3202;DHT22;34843;48.744;8.958;2023-04-25T18:04:31;7.10;99.90
3202;DHT22;34843;48.744;8.958;2023-04-25T18:06:57;7.10;99.90
3202;DHT22;34843;48.744;8.958;2023-04-25T18:09:23;7.10;99.90
3202;DHT22;34843;48.744;8.958;2023-04-25T18:11:53;7.10;99.90
3202;DHT22;34843;48.744;8.958;2023-04-25T18:14:19;7.10;99.90
3202;DHT22;34843;48.744;8.958;2023-04-25T18:16:47;7.00;99.90
3202;DHT22;34843;48.744;8.958;2023-04-25T18:19:13;7.00;99.90
3202;DHT22;34843;48.744;8.958;2023-04-25T18:21:49;7.00;99.90
3202;DHT22;34843;48.744;8.958;2023-04-25T18:24:16;7.00;99.90
3202;DHT22;34843;48.744;8.958;2023-04-25T18:26:43;6.90;99.90
3202;DHT22;34843;48.744;8.958;2023-04-25T18:29:10;6.90;99.90
3202;DHT22;34843;48.744;8.958;2023-04-25T18:31:36;6.90;99.90
3202;DHT22;34843;48.744;8.958;2023-04-25T18:34:01;6.90;99.90
3202;DHT22;34843;48.744;8.958;2023-04-25T18:36:27;6.90;99.90
3202;DHT22;34843;48.744;8.958;2023-04-25T18:38:54;6.80;99.90
3202;DHT22;34843;48.744;8.958;2023-04-25T18:41:21;6.80;99.90
3202;DHT22;34843;48.744;8.958;2023-04-25T18:43:55;6.80;99.90
3202;DHT22;34843;48.744;8.958;2023-04-25T18:46:23;6.80;99.90
3202;DHT22;34843;48.744;8.958;2023-04-25T18:48:50;6.80;99.90
3202;DHT22;34843;48.744;8.958;2023-04-25T18:51:16;6.70;99.90
3202;DHT22;34843;48.744;8.958;2023-04-25T18:53:41;6.70;99.90
3202;DHT22;34843;48.744;8.958;2023-04-25T18:56:07;6.60;99.90
3202;DHT22;34843;48.744;8.958;2023-04-25T18:58:33;6.60;99.90
3202;DHT22;34843;48.744;8.958;2023-04-25T19:00:59;6.60;99.90
3202;DHT22;34843;48.744;8.958;2023-04-25T19:03:26;6.60;99.90
3202;DHT22;34843;48.744;8.958;2023-04-25T19:05:51;6.60;99.90
3202;DHT22;34843;48.744;8.958;2023-04-25T19:08:17;6.60;99.90
3202;DHT22;34843;48.744;8.958;2023-04-25T19:10:43;6.60;99.90
3202;DHT22;34843;48.744;8.958;2023-04-25T19:13:08;6.70;99.90
3202;DHT22;34843;48.744;8.958;2023-04-25T19:15:34;6.60;99.90
3202;DHT22;34843;48.744;8.958;2023-04-25T19:18:00;6.70;99.90
3202;DHT22;34843;48.744;8.958;2023-04-25T19:20:26;6.70;99.90
3202;DHT22;34843;48.744;8.958;2023-04-25T19:22:51;6.80;99.90
3202;DHT22;34843;48.744;8.958;2023-04-25T19:25:18;6.90;99.90
3202;DHT22;34843;48.744;8.958;2023-04-25T19:27:44;6.90;99.90
3202;DHT22;34843;48.744;8.958;2023-04-25T19:30:10;6.90;99.90
3202;DHT22;34843;48.744;8.958;2023-04-25T19:32:39;6.80;99.90
3202;DHT22;34843;48.744;8.958;2023-04-25T19:35:06;6.70;99.90
3202;DHT22;34843;48.744;8.958;2023-04-25T19:37:32;6.70;99.90
3202;DHT22;34843;48.744;8.958;2023-04-25T19:39:58;6.70;99.90
3202;DHT22;34843;48.744;8.958;2023-04-25T19:42:24;6.60;99.90
3202;DHT22;34843;48.744;8.958;2023-04-25T19:44:50;6.60;99.90
3202;DHT22;34843;48.744;8.958;2023-04-25T19:47:16;6.60;99.90
3202;DHT22;34843;48.744;8.958;2023-04-25T19:49:41;6.60;99.90
3202;DHT22;34843;48.744;8.958;2023-04-25T19:52:07;6.60;99.90
3202;DHT22;34843;48.744;8.958;2023-04-25T19:54:38;6.60;99.90
3202;DHT22;34843;48.744;8.958;2023-04-25T19:57:04;6.50;99.90
3202;DHT22;34843;48.744;8.958;2023-04-25T19:59:29;6.60;99.90
3202;DHT22;34843;48.744;8.958;2023-04-25T20:01:55;6.60;99.90
3202;DHT22;34843;48.744;8.958;2023-04-25T20:04:20;6.50;99.90
3202;DHT22;34843;48.744;8.958;2023-04-25T20:06:46;6.50;99.90
3202;DHT22;34843;48.744;8.958;2023-04-25T20:09:12;6.40;99.90
3202;DHT22;34843;48.744;8.958;2023-04-25T20:11:37;6.40;99.90
3202;DHT22;34843;48.744;8.958;2023-04-25T20:14:03;6.30;99.90
3202;DHT22;34843;48.744;8.958;2023-04-25T20:16:30;6.30;99.90
3202;DHT22;34843;48.744;8.958;2023-04-25T20:18:56;6.30;99.90
3202;DHT22;34843;48.744;8.958;2023-04-25T20:21:22;6.30;99.90
3202;DHT22;34843;48.744;8.958;2023-04-25T20:23:48;6.30;99.90
3202;DHT22;34843;48.744;8.958;2023-04-25T20:26:14;6.30;99.90
3202;DHT22;34843;48.744;8.958;2023-04-25T20:28:40;6.40;99.90
3202;DHT22;34843;48.744;8.958;2023-04-25T20:31:06;6.40;99.90
3202;DHT22;34843;48.744;8.958;2023-04-25T20:33:33;6.40;99.90
3202;DHT22;34843;48.744;8.958;2023-04-25T20:35:58;6.40;99.90
3202;DHT22;34843;48.744;8.958;2023-04-25T20:38:24;6.40;99.90
3202;DHT22;34843;48.744;8.958;2023-04-25T20:40:50;6.40;99.90
3202;DHT22;34843;48.744;8.958;2023-04-25T20:43:16;6.40;99.90
3202;DHT22;34843;48.744;8.958;2023-04-25T20:45:41;6.40;99.90
3202;DHT22;34843;48.744;8.958;2023-04-25T20:48:07;6.50;99.90
3202;DHT22;34843;48.744;8.958;2023-04-25T20:50:32;6.50;99.90
3202;DHT22;34843;48.744;8.958;2023-04-25T20:52:58;6.50;99.90
3202;DHT22;34843;48.744;8.958;2023-04-25T20:55:24;6.40;99.90
3202;DHT22;34843;48.744;8.958;2023-04-25T20:57:49;6.40;99.90
3202;DHT22;34843;48.744;8.958;2023-04-25T21:00:15;6.50;99.90
3202;DHT22;34843;48.744;8.958;2023-04-25T21:02:43;6.50;99.90
3202;DHT22;34843;48.744;8.958;2023-04-25T21:05:10;6.50;99.90
3202;DHT22;34843;48.744;8.958;2023-04-25T21:07:37;6.50;99.90
3202;DHT22;34843;48.744;8.958;2023-04-25T21:10:03;6.50;99.90
3202;DHT22;34843;48.744;8.958;2023-04-25T21:12:29;6.50;99.90
3202;DHT22;34843;48.744;8.958;2023-04-25T21:14:55;6.50;99.90
3202;DHT22;34843;48.744;8.958;2023-04-25T21:17:20;6.50;99.90
3202;DHT22;34843;48.744;8.958;2023-04-25T21:19:46;6.50;99.90
3202;DHT22;34843;48.744;8.958;2023-04-25T21:22:11;6.50;99.90
3202;DHT22;34843;48.744;8.958;2023-04-25T21:24:37;6.50;99.90
3202;DHT22;34843;48.744;8.958;2023-04-25T21:27:02;6.50;99.90
3202;DHT22;34843;48.744;8.958;2023-04-25T21:29:28;6.60;99.90
3202;DHT22;34843;48.744;8.958;2023-04-25T21:31:53;6.70;99.90
3202;DHT22;34843;48.744;8.958;2023-04-25T21:34:20;6.70;99.90
3202;DHT22;34843;48.744;8.958;2023-04-25T21:36:46;6.70;99.90
3202;DHT22;34843;48.744;8.958;2023-04-25T21:39:12;6.80;99.90
3202;DHT22;34843;48.744;8.958;2023-04-25T21:41:39;6.80;99.90
3202;DHT22;34843;48.744;8.958;2023-04-25T21:46:31;6.70;99.90
3202;DHT22;34843;48.744;8.958;2023-04-25T21:48:56;6.70;99.90
3202;DHT22;34843;48.744;8.958;2023-04-25T21:51:23;6.70;99.90
3202;DHT22;34843;48.744;8.958;2023-04-25T21:53:49;6.80;99.90
3202;DHT22;34843;48.744;8.958;2023-04-25T21:56:14;6.80;99.90
3202;DHT22;34843;48.744;8.958;2023-04-25T21:58:40;6.80;99.90
3202;DHT22;34843;48.744;8.958;2023-04-25T22:01:05;6.80;99.90
3202;DHT22;34843;48.744;8.958;2023-04-25T22:03:31;6.90;99.90
3202;DHT22;34843;48.744;8.958;2023-04-25T22:05:57;6.80;99.90
3202;DHT22;34843;48.744;8.958;2023-04-25T22:08:23;6.90;99.90
3202;DHT22;34843;48.744;8.958;2023-04-25T22:10:48;6.90;99.90
3202;DHT22;34843;48.744;8.958;2023-04-25T22:13:14;6.90;99.90
3202;DHT22;34843;48.744;8.958;2023-04-25T22:15:40;6.90;99.90
3202;DHT22;34843;48.744;8.958;2023-04-25T22:18:06;6.90;99.90
3202;DHT22;34843;48.744;8.958;2023-04-25T22:20:32;6.90;99.90
3202;DHT22;34843;48.744;8.958;2023-04-25T22:22:57;6.90;99.90
3202;DHT22;34843;48.744;8.958;2023-04-25T22:25:23;6.90;99.90
3202;DHT22;34843;48.744;8.958;2023-04-25T22:27:49;6.90;99.90
3202;DHT22;34843;48.744;8.958;2023-04-25T22:30:16;6.90;99.90
3202;DHT22;34843;48.744;8.958;2023-04-25T22:32:42;6.80;99.90
3202;DHT22;34843;48.744;8.958;2023-04-25T22:35:08;6.90;99.90
3202;DHT22;34843;48.744;8.958;2023-04-25T22:37:34;6.80;99.90
3202;DHT22;34843;48.744;8.958;2023-04-25T22:40:01;6.80;99.90
3202;DHT22;34843;48.744;8.958;2023-04-25T22:42:38;6.80;99.90
3202;DHT22;34843;48.744;8.958;2023-04-25T22:45:05;6.80;99.90
3202;DHT22;34843;48.744;8.958;2023-04-25T22:47:33;6.80;99.90
3202;DHT22;34843;48.744;8.958;2023-04-25T22:49:58;6.70;99.90
3202;DHT22;34843;48.744;8.958;2023-04-25T22:52:25;6.80;99.90
3202;DHT22;34843;48.744;8.958;2023-04-25T22:54:51;6.70;99.90
3202;DHT22;34843;48.744;8.958;2023-04-25T22:57:17;6.60;99.90
3202;DHT22;34843;48.744;8.958;2023-04-25T22:59:43;6.60;99.90
3202;DHT22;34843;48.744;8.958;2023-04-25T23:02:08;6.50;99.90
3202;DHT22;34843;48.744;8.958;2023-04-25T23:04:34;6.50;99.90
3202;DHT22;34843;48.744;8.958;2023-04-25T23:07:00;6.50;99.90
3202;DHT22;34843;48.744;8.958;2023-04-25T23:09:26;6.40;99.90
3202;DHT22;34843;48.744;8.958;2023-04-25T23:11:51;6.40;99.90
3202;DHT22;34843;48.744;8.958;2023-04-25T23:14:18;6.40;99.90
3202;DHT22;34843;48.744;8.958;2023-04-25T23:16:43;6.30;99.90
3202;DHT22;34843;48.744;8.958;2023-04-25T23:19:09;6.40;99.90
3202;DHT22;34843;48.744;8.958;2023-04-25T23:21:35;6.30;99.90
3202;DHT22;34843;48.744;8.958;2023-04-25T23:24:01;6.30;99.90
3202;DHT22;34843;48.744;8.958;2023-04-25T23:26:26;6.30;99.90
3202;DHT22;34843;48.744;8.958;2023-04-25T23:28:52;6.30;99.90
3202;DHT22;34843;48.744;8.958;2023-04-25T23:31:17;6.30;99.90
3202;DHT22;34843;48.744;8.958;2023-04-25T23:33:43;6.30;99.90
3202;DHT22;34843;48.744;8.958;2023-04-25T23:36:16;6.20;99.90
3202;DHT22;34843;48.744;8.958;2023-04-25T23:38:44;6.20;99.90
3202;DHT22;34843;48.744;8.958;2023-04-25T23:41:09;6.10;99.90
3202;DHT22;34843;48.744;8.958;2023-04-25T23:43:35;6.10;99.90
3202;DHT22;34843;48.744;8.958;2023-04-25T23:46:01;6.10;99.90
3202;DHT22;34843;48.744;8.958;2023-04-25T23:48:26;6.00;99.90
3202;DHT22;34843;48.744;8.958;2023-04-25T23:50:52;6.00;99.90
3202;DHT22;34843;48.744;8.958;2023-04-25T23:53:17;6.00;99.90
3202;DHT22;34843;48.744;8.958;2023-04-25T23:55:43;6.00;99.90
3202;DHT22;34843;48.744;8.958;2023-04-25T23:58:08;6.00;99.90
